Time;durP1;ratioP1;P1;durP2;ratioP2;P2;SDS_P1;SDS_P2;PMS_P1;PMS_P2;Temp;Humidity;BMP_temperature;BMP_pressure;BME280_temperature;BME280_humidity;BME280_pressure;Samples;Min_cycle;Max_cycle;Signal;HPM_P1;HPM_P2
2024/02/08 00:01:49;;;;;;;0.30;0.20;;;16.70;76.60;;;;;;5019210;28;20061;-86
2024/02/08 00:04:14;;;;;;;0.30;0.30;;;16.70;76.70;;;;;;4999888;28;20061;-86
2024/02/08 00:06:40;;;;;;;0.20;0.10;;;16.70;77.50;;;;;;5002407;28;20407;-85
2024/02/08 00:09:07;;;;;;;0.40;0.20;;;16.70;76.70;;;;;;5004692;28;20096;-85
2024/02/08 00:11:33;;;;;;;0.17;0.17;;;16.60;76.60;;;;;;5017782;28;20046;-89
2024/02/08 00:13:58;;;;;;;0.10;0.10;;;16.70;76.70;;;;;;5018124;28;20042;-87
2024/02/08 00:16:24;;;;;;;0.25;0.10;;;16.60;76.60;;;;;;5005612;28;20520;-86
2024/02/08 00:18:50;;;;;;;0.32;0.10;;;16.60;76.60;;;;;;5016506;28;20439;-85
2024/02/08 00:21:15;;;;;;;0.43;0.13;;;16.70;76.70;;;;;;5016082;28;20415;-87
2024/02/08 00:23:41;;;;;;;0.30;0.10;;;16.60;76.60;;;;;;4987694;28;20077;-89
2024/02/08 00:26:07;;;;;;;0.15;0.15;;;16.60;76.60;;;;;;5004682;28;20053;-90
2024/02/08 00:28:32;;;;;;;0.20;0.20;;;16.70;76.50;;;;;;5005090;28;20041;-87
2024/02/08 00:30:58;;;;;;;0.10;0.10;;;16.60;76.50;;;;;;5010340;28;20057;-88
2024/02/08 00:33:25;;;;;;;0.40;0.20;;;16.60;76.50;;;;;;5001913;28;20508;-87
2024/02/08 00:35:52;;;;;;;0.17;0.17;;;16.60;76.40;;;;;;4989077;28;20046;-87
2024/02/08 00:38:17;;;;;;;0.63;0.28;;;16.70;76.40;;;;;;5002113;28;20085;-80
2024/02/08 00:40:43;;;;;;;0.50;0.20;;;16.60;76.40;;;;;;5002329;28;20529;-81
2024/02/08 00:43:09;;;;;;;0.20;0.10;;;16.60;76.50;;;;;;4988106;28;20049;-81
2024/02/08 00:45:35;;;;;;;0.20;0.20;;;16.60;76.50;;;;;;5001124;28;20074;-81
2024/02/08 00:48:01;;;;;;;0.30;0.30;;;16.70;76.60;;;;;;5001115;28;20046;-81
2024/02/08 00:50:26;;;;;;;0.20;0.20;;;16.70;76.40;;;;;;5004251;28;20049;-81
2024/02/08 00:52:55;;;;;;;0.30;0.30;;;16.60;76.50;;;;;;5002922;28;20037;-81
2024/02/08 00:55:21;;;;;;;1.05;0.10;;;16.70;76.40;;;;;;5001018;28;20431;-81
2024/02/08 00:57:46;;;;;;;2.03;0.20;;;16.60;76.40;;;;;;4998225;28;20045;-81
2024/02/08 01:00:12;;;;;;;0.10;0.10;;;16.60;76.40;;;;;;5002811;28;20050;-82
2024/02/08 01:02:43;;;;;;;0.10;0.10;;;16.60;76.30;;;;;;5004625;28;20045;-81
2024/02/08 01:05:08;;;;;;;0.28;0.20;;;16.60;76.50;;;;;;5005014;28;20420;-81
2024/02/08 01:07:34;;;;;;;0.20;0.20;;;16.60;76.50;;;;;;5006724;28;20050;-81
2024/02/08 01:10:00;;;;;;;0.10;0.10;;;16.60;76.40;;;;;;5000613;28;23770;-81
2024/02/08 01:12:26;;;;;;;0.22;0.10;;;16.60;76.60;;;;;;5007459;28;20140;-82
2024/02/08 01:14:51;;;;;;;0.20;0.20;;;16.60;76.40;;;;;;5020043;28;20038;-81
2024/02/08 01:17:17;;;;;;;0.10;0.10;;;16.60;76.50;;;;;;5004316;28;20048;-82
2024/02/08 01:19:43;;;;;;;0.10;0.10;;;16.60;77.30;;;;;;5005136;28;20514;-81
2024/02/08 01:22:08;;;;;;;0.10;0.10;;;16.60;76.50;;;;;;5006058;28;20050;-81
2024/02/08 01:24:34;;;;;;;0.28;0.25;;;16.60;76.60;;;;;;5020001;28;20125;-81
2024/02/08 01:27:00;;;;;;;0.20;0.17;;;16.60;76.60;;;;;;5001290;28;20564;-82
2024/02/08 01:29:26;;;;;;;0.20;0.10;;;16.50;76.50;;;;;;4991283;28;20049;-81
2024/02/08 01:31:52;;;;;;;0.40;0.30;;;16.60;76.50;;;;;;5019767;28;20515;-81
2024/02/08 01:34:18;;;;;;;0.32;0.20;;;16.60;76.50;;;;;;5007123;28;20034;-81
2024/02/08 01:36:43;;;;;;;0.32;0.20;;;16.60;76.60;;;;;;5019994;28;20077;-81
2024/02/08 01:39:22;;;;;;;0.20;0.20;;;16.50;76.40;;;;;;5002905;28;20049;-82
2024/02/08 01:41:48;;;;;;;1.45;0.30;;;16.50;76.40;;;;;;5016205;28;20180;-81
2024/02/08 01:44:16;;;;;;;0.55;0.30;;;16.50;76.40;;;;;;5005020;28;20121;-81
2024/02/08 01:46:41;;;;;;;0.40;0.20;;;16.60;76.50;;;;;;5005683;28;20135;-81
2024/02/08 01:49:08;;;;;;;0.10;0.00;;;16.50;76.50;;;;;;5006613;28;20511;-81
2024/02/08 01:51:34;;;;;;;0.68;0.40;;;16.50;76.40;;;;;;4988557;28;20042;-81
2024/02/08 01:54:01;;;;;;;0.30;0.20;;;16.50;76.50;;;;;;5005221;28;20150;-81
2024/02/08 01:56:28;;;;;;;0.43;0.30;;;16.50;76.40;;;;;;4983539;28;20041;-80
2024/02/08 01:58:54;;;;;;;0.40;0.30;;;16.50;76.50;;;;;;5011116;28;20061;-80
2024/02/08 02:01:22;;;;;;;0.52;0.20;;;16.50;76.40;;;;;;5005790;28;20539;-80
2024/02/08 02:03:48;;;;;;;0.50;0.30;;;16.50;76.50;;;;;;5015227;28;20062;-80
2024/02/08 02:06:14;;;;;;;0.70;0.38;;;16.50;76.60;;;;;;5001784;28;20122;-80
2024/02/08 02:08:41;;;;;;;0.45;0.30;;;16.50;76.50;;;;;;5014004;28;20550;-80
2024/02/08 02:11:28;;;;;;;1.58;0.30;;;16.50;76.50;;;;;;4983989;28;20042;-80
2024/02/08 02:13:54;;;;;;;2.22;0.93;;;16.50;76.40;;;;;;5000345;28;20038;-80
2024/02/08 02:16:23;;;;;;;0.70;0.40;;;16.50;76.40;;;;;;4999915;28;20101;-80
2024/02/08 02:18:49;;;;;;;0.40;0.30;;;16.50;76.30;;;;;;5000806;28;20050;-80
2024/02/08 02:21:20;;;;;;;1.38;0.65;;;16.50;76.60;;;;;;5006398;28;20045;-82
2024/02/08 02:23:46;;;;;;;1.52;0.57;;;16.50;76.50;;;;;;4985303;28;20042;-82
2024/02/08 02:26:12;;;;;;;0.98;0.40;;;16.50;76.40;;;;;;5017642;28;20049;-81
2024/02/08 02:28:38;;;;;;;0.90;0.30;;;16.50;76.40;;;;;;5004138;28;20050;-81
2024/02/08 02:31:06;;;;;;;0.80;0.60;;;16.50;76.50;;;;;;5008230;28;20044;-81
2024/02/08 02:33:34;;;;;;;0.98;0.60;;;16.50;76.40;;;;;;5004644;28;20566;-81
2024/02/08 02:36:01;;;;;;;0.43;0.40;;;16.50;76.40;;;;;;5019500;28;20038;-81
2024/02/08 02:38:27;;;;;;;0.43;0.40;;;16.40;76.50;;;;;;5001644;28;20053;-82
2024/02/08 02:40:52;;;;;;;1.73;0.50;;;16.40;76.40;;;;;;5000831;28;20045;-81
2024/02/08 02:43:18;;;;;;;2.08;0.60;;;16.50;76.40;;;;;;5001583;28;20052;-81
2024/02/08 02:45:43;;;;;;;0.70;0.50;;;16.40;76.40;;;;;;4999895;28;20038;-81
2024/02/08 02:48:09;;;;;;;1.38;0.70;;;16.50;76.40;;;;;;5003413;28;20077;-81
2024/02/08 02:50:40;;;;;;;1.45;0.60;;;16.50;76.50;;;;;;5018050;28;20041;-81
2024/02/08 02:53:06;;;;;;;1.40;0.60;;;16.50;76.60;;;;;;5021204;28;20057;-81
2024/02/08 02:55:32;;;;;;;0.85;0.40;;;16.50;76.40;;;;;;4988002;28;20144;-81
2024/02/08 02:57:58;;;;;;;1.15;0.65;;;16.40;76.40;;;;;;5002382;28;20050;-81
2024/02/08 03:00:24;;;;;;;0.50;0.47;;;16.40;76.50;;;;;;5001756;28;20046;-81
2024/02/08 03:02:51;;;;;;;0.70;0.65;;;16.40;76.30;;;;;;5002560;28;20566;-81
2024/02/08 03:05:23;;;;;;;0.80;0.63;;;16.50;76.40;;;;;;5002294;28;20593;-81
2024/02/08 03:07:49;;;;;;;1.33;0.65;;;16.40;76.50;;;;;;5003209;28;20474;-81
2024/02/08 03:10:21;;;;;;;1.30;0.70;;;16.50;76.40;;;;;;5027041;28;20078;-81
2024/02/08 03:12:50;;;;;;;1.00;0.70;;;16.40;76.50;;;;;;5002713;28;20042;-81
2024/02/08 03:15:17;;;;;;;0.68;0.43;;;16.40;76.50;;;;;;5005180;28;20575;-81
2024/02/08 03:17:45;;;;;;;1.25;0.75;;;16.40;76.50;;;;;;5002570;28;20495;-81
2024/02/08 03:20:24;;;;;;;1.52;0.88;;;16.40;76.40;;;;;;5004420;28;20056;-80
2024/02/08 03:22:52;;;;;;;1.20;0.70;;;16.40;76.50;;;;;;5005848;28;20586;-81
2024/02/08 03:25:18;;;;;;;1.25;0.70;;;16.40;76.50;;;;;;5021109;28;20073;-81
2024/02/08 03:27:44;;;;;;;0.95;0.68;;;16.40;76.40;;;;;;5004418;28;20522;-81
2024/02/08 03:30:30;;;;;;;3.47;0.80;;;16.40;76.40;;;;;;5003652;28;20057;-82
2024/02/08 03:32:57;;;;;;;1.02;0.80;;;16.40;76.50;;;;;;4988431;28;20034;-82
2024/02/08 03:36:08;;;;;;;1.67;1.00;;;16.40;76.50;;;;;;5003386;28;20053;-82
2024/02/08 03:38:33;;;;;;;2.10;0.82;;;16.40;76.50;;;;;;5000778;28;20046;-82
2024/02/08 03:41:17;;;;;;;1.33;0.75;;;16.40;76.30;;;;;;5000631;28;20092;-83
2024/02/08 03:43:42;;;;;;;1.13;0.52;;;16.40;76.30;;;;;;4987408;28;20092;-82
2024/02/08 03:46:08;;;;;;;1.98;0.65;;;16.40;76.30;;;;;;5015954;28;20046;-82
2024/02/08 03:48:33;;;;;;;1.58;1.00;;;16.40;76.40;;;;;;5000632;28;20045;-82
2024/02/08 03:51:00;;;;;;;1.15;0.77;;;16.40;76.40;;;;;;5015371;28;20124;-82
2024/02/08 03:53:26;;;;;;;2.10;0.77;;;16.40;76.50;;;;;;5000632;28;20133;-82
2024/02/08 03:55:51;;;;;;;1.00;0.70;;;16.40;76.50;;;;;;5001487;28;20513;-82
2024/02/08 03:58:18;;;;;;;2.42;0.80;;;16.40;76.50;;;;;;5003988;28;20042;-81
2024/02/08 04:00:46;;;;;;;3.40;1.25;;;16.40;76.50;;;;;;5000323;28;20045;-82
2024/02/08 04:03:14;;;;;;;1.52;0.95;;;16.40;76.50;;;;;;5000677;28;20042;-82
2024/02/08 04:55:17;;;;;;;4.22;1.25;;;16.40;76.80;;;;;;5005832;28;20486;-81
2024/02/08 04:57:43;;;;;;;1.27;1.08;;;16.40;76.70;;;;;;5005181;28;20038;-82
2024/02/08 05:00:12;;;;;;;3.55;1.20;;;16.40;76.60;;;;;;5002558;28;20053;-81
2024/02/08 05:02:38;;;;;;;2.78;1.00;;;16.40;76.60;;;;;;4973981;28;20041;-82
2024/02/08 05:05:07;;;;;;;3.10;1.27;;;16.40;77.40;;;;;;4973075;28;20520;-81
2024/02/08 05:07:32;;;;;;;3.47;1.20;;;16.40;76.60;;;;;;4972942;28;20033;-81
2024/02/08 05:09:58;;;;;;;3.30;0.90;;;16.40;76.50;;;;;;4992675;28;20042;-84
2024/02/08 05:12:24;;;;;;;1.85;1.20;;;16.30;76.60;;;;;;4990816;28;20099;-84
2024/02/08 05:14:50;;;;;;;1.30;0.80;;;16.40;76.70;;;;;;4992520;28;21613;-84
2024/02/08 05:17:16;;;;;;;1.90;1.00;;;16.40;76.60;;;;;;4982198;28;20065;-81
2024/02/08 05:19:44;;;;;;;2.63;1.02;;;16.40;76.50;;;;;;4999959;28;20566;-81
2024/02/08 05:22:11;;;;;;;2.10;0.82;;;16.40;76.50;;;;;;4987899;28;20041;-81
2024/02/08 05:24:37;;;;;;;2.00;0.95;;;16.30;76.50;;;;;;5003221;28;20038;-81
2024/02/08 05:27:03;;;;;;;2.75;1.00;;;16.40;76.50;;;;;;5020152;28;20052;-81
2024/02/08 05:29:28;;;;;;;1.27;0.90;;;16.30;76.60;;;;;;5005590;28;20042;-82
2024/02/08 05:31:54;;;;;;;4.03;1.35;;;16.40;76.50;;;;;;5002868;28;20060;-81
2024/02/08 05:34:21;;;;;;;2.97;1.30;;;16.40;76.60;;;;;;5004519;28;20157;-82
2024/02/08 05:37:07;;;;;;;2.30;1.25;;;16.30;76.60;;;;;;5001167;28;20037;-83
2024/02/08 05:39:32;;;;;;;2.75;1.58;;;16.40;76.70;;;;;;5002772;28;20121;-82
2024/02/08 05:41:59;;;;;;;2.00;0.90;;;16.30;76.70;;;;;;5004075;28;20591;-82
2024/02/08 05:44:29;;;;;;;1.52;1.10;;;16.30;76.60;;;;;;5000527;28;20060;-83
2024/02/08 05:46:56;;;;;;;3.00;1.40;;;16.30;76.60;;;;;;5001935;28;20030;-83
2024/02/08 05:49:25;;;;;;;2.50;0.88;;;16.30;76.60;;;;;;5017627;28;20042;-81
2024/02/08 05:51:54;;;;;;;2.83;1.27;;;16.30;76.50;;;;;;5004592;28;20566;-82
2024/02/08 05:54:20;;;;;;;2.88;1.25;;;16.30;76.60;;;;;;5003857;28;20516;-83
2024/02/08 05:56:49;;;;;;;1.95;1.15;;;16.30;76.60;;;;;;5022484;28;20067;-82
2024/02/08 05:59:18;;;;;;;2.58;1.20;;;16.30;76.70;;;;;;5001054;28;20046;-82
2024/02/08 06:01:47;;;;;;;3.22;1.20;;;16.30;76.70;;;;;;5019964;28;20041;-82
2024/02/08 06:04:22;;;;;;;1.77;1.20;;;16.30;77.30;;;;;;5000358;28;20069;-81
2024/02/08 06:06:53;;;;;;;1.70;0.85;;;16.30;76.50;;;;;;5001504;28;20057;-81
2024/02/08 06:09:47;;;;;;;1.38;1.13;;;16.30;76.60;;;;;;4986478;28;20132;-81
2024/02/08 06:12:23;;;;;;;1.25;0.82;;;16.30;76.50;;;;;;5011194;28;20596;-81
2024/02/08 06:14:58;;;;;;;2.83;0.90;;;16.30;76.50;;;;;;5017665;28;20137;-84
2024/02/08 06:17:32;;;;;;;3.42;1.38;;;16.30;77.10;;;;;;5004383;28;20041;-80
2024/02/08 06:20:09;;;;;;;1.73;1.00;;;16.30;76.50;;;;;;4960170;28;20405;-81
2024/02/08 06:22:39;;;;;;;4.82;1.27;;;16.30;76.60;;;;;;5006509;28;20046;-81
2024/02/08 06:25:36;;;;;;;1.50;0.70;;;16.30;76.40;;;;;;4999053;28;20049;-81
2024/02/08 06:28:03;;;;;;;2.53;1.10;;;16.30;76.50;;;;;;5014126;28;20120;-81
2024/02/08 06:30:31;;;;;;;1.70;1.05;;;16.30;76.40;;;;;;5003152;28;20545;-81
2024/02/08 06:33:16;;;;;;;2.53;1.25;;;16.30;76.40;;;;;;4999758;28;20066;-81
2024/02/08 06:35:56;;;;;;;2.85;1.13;;;16.30;76.40;;;;;;4994096;28;20080;-82
2024/02/08 06:38:40;;;;;;;2.00;0.93;;;16.30;76.30;;;;;;5003622;28;24016;-82
2024/02/08 06:41:09;;;;;;;2.58;1.20;;;16.30;76.40;;;;;;5003613;28;20038;-81
2024/02/08 06:43:57;;;;;;;2.13;1.10;;;16.30;76.30;;;;;;5004994;28;20046;-80
2024/02/08 06:46:47;;;;;;;1.60;0.75;;;16.30;76.40;;;;;;5003853;28;21255;-80
2024/02/08 07:41:12;;;;;;;0.80;0.60;;;16.40;77.00;;;;;;5002642;28;20044;-80
2024/02/08 07:43:43;;;;;;;2.42;0.98;;;16.40;77.10;;;;;;5003341;28;20091;-80
2024/02/08 07:46:16;;;;;;;1.95;1.05;;;16.40;77.20;;;;;;5000416;28;20069;-79
2024/02/08 07:48:43;;;;;;;1.38;0.90;;;16.40;77.30;;;;;;5017846;28;20141;-79
2024/02/08 07:51:09;;;;;;;2.03;0.85;;;16.40;77.10;;;;;;5000307;28;20125;-80
2024/02/08 07:53:45;;;;;;;1.92;0.80;;;16.40;77.20;;;;;;5003297;28;20042;-80
2024/02/08 07:58:49;;;;;;;2.90;1.20;;;16.40;77.40;;;;;;5002722;28;20526;-79
2024/02/08 08:01:18;;;;;;;4.13;1.05;;;16.40;77.40;;;;;;5002496;28;20550;-79
2024/02/08 08:03:50;;;;;;;2.55;1.15;;;16.40;77.30;;;;;;5000604;28;20034;-79
2024/02/08 08:06:15;;;;;;;2.20;0.88;;;16.40;77.40;;;;;;5015906;28;20095;-79
2024/02/08 08:08:43;;;;;;;1.40;0.70;;;16.40;77.40;;;;;;5002633;28;20116;-79
2024/02/08 08:11:15;;;;;;;1.05;0.90;;;16.40;77.60;;;;;;5002389;28;20054;-79
2024/02/08 08:13:52;;;;;;;3.67;0.90;;;16.40;78.20;;;;;;5020238;28;20503;-79
2024/02/08 08:19:08;;;;;;;4.60;1.05;;;16.40;77.40;;;;;;4988909;28;20065;-79
2024/02/08 08:24:27;;;;;;;1.02;0.93;;;16.30;77.40;;;;;;4995241;28;20132;-79
2024/02/08 08:27:26;;;;;;;2.42;0.80;;;16.30;77.20;;;;;;5000868;28;20117;-79
2024/02/08 08:29:52;;;;;;;1.45;0.82;;;16.30;77.20;;;;;;4987948;28;20030;-79
2024/02/08 08:37:44;;;;;;;1.67;0.75;;;16.30;77.30;;;;;;5004306;28;20057;-79
2024/02/08 08:40:37;;;;;;;0.85;0.63;;;16.30;77.30;;;;;;4998203;28;20058;-79
2024/02/08 08:43:19;;;;;;;2.55;1.30;;;16.30;77.20;;;;;;5011651;28;20131;-79
2024/02/08 08:45:50;;;;;;;3.75;1.30;;;16.30;77.20;;;;;;5017079;28;20060;-79
2024/02/08 08:48:31;;;;;;;1.52;1.10;;;16.30;77.20;;;;;;5002775;28;20042;-79
2024/02/08 08:50:57;;;;;;;2.90;0.98;;;16.30;77.10;;;;;;5017547;28;20050;-79
2024/02/08 08:53:27;;;;;;;2.05;0.95;;;16.30;77.20;;;;;;5002031;28;20045;-79
2024/02/08 08:55:56;;;;;;;1.52;0.80;;;16.30;77.20;;;;;;5002261;28;20408;-79
2024/02/08 08:58:27;;;;;;;3.70;0.80;;;16.30;77.10;;;;;;5000501;28;20112;-79
2024/02/08 09:03:39;;;;;;;1.85;0.88;;;16.30;77.10;;;;;;5017793;28;20610;-79
2024/02/08 09:06:10;;;;;;;3.95;1.10;;;16.30;77.10;;;;;;5014936;28;20155;-79
2024/02/08 09:08:43;;;;;;;3.15;0.77;;;16.30;77.10;;;;;;5002618;28;20049;-79
2024/02/08 09:11:12;;;;;;;1.90;1.00;;;16.30;78.00;;;;;;5015256;28;20132;-79
2024/02/08 09:13:51;;;;;;;2.38;1.38;;;16.30;77.10;;;;;;5017769;28;20274;-79
2024/02/08 09:21:32;;;;;;;1.52;1.20;;;16.30;77.10;;;;;;5017009;28;20061;-79
2024/02/08 09:24:03;;;;;;;2.08;1.08;;;16.30;77.10;;;;;;5007317;28;20046;-79
2024/02/08 09:26:52;;;;;;;1.20;0.88;;;16.30;77.00;;;;;;5005336;28;20053;-79
2024/02/08 09:29:23;;;;;;;3.30;1.15;;;16.30;77.00;;;;;;4999579;28;20038;-79
2024/02/08 09:31:50;;;;;;;1.48;0.93;;;16.20;76.90;;;;;;4991785;28;20377;-79
2024/02/08 09:34:16;;;;;;;1.60;0.93;;;16.30;77.00;;;;;;4984755;28;20096;-79
2024/02/08 09:36:46;;;;;;;3.42;1.20;;;16.20;76.90;;;;;;5003237;28;20038;-79
2024/02/08 09:39:19;;;;;;;3.97;0.95;;;16.30;77.00;;;;;;5006079;28;20054;-79
2024/02/08 09:41:45;;;;;;;1.97;1.20;;;16.30;77.00;;;;;;5003615;28;20050;-79
2024/02/08 09:44:14;;;;;;;1.75;0.90;;;16.30;76.90;;;;;;5015542;28;20347;-79
2024/02/08 09:49:15;;;;;;;1.75;1.05;;;16.20;76.80;;;;;;5018193;28;20411;-79
2024/02/08 09:51:41;;;;;;;2.92;0.90;;;16.20;76.90;;;;;;5005485;28;20456;-79
2024/02/08 09:54:16;;;;;;;3.78;1.20;;;16.20;76.90;;;;;;4999170;28;20575;-79
2024/02/08 09:56:50;;;;;;;2.47;1.20;;;16.30;76.90;;;;;;5019244;28;20378;-79
2024/02/08 09:59:33;;;;;;;3.63;1.10;;;16.30;76.90;;;;;;4991468;28;20050;-79
2024/02/08 10:02:00;;;;;;;1.50;1.30;;;16.30;76.90;;;;;;5001715;28;20077;-79
2024/02/08 10:04:30;;;;;;;1.55;0.90;;;16.20;76.90;;;;;;4987248;28;20069;-79
2024/02/08 10:09:40;;;;;;;1.50;1.20;;;16.30;76.90;;;;;;5021219;28;20088;-78
2024/02/08 10:12:08;;;;;;;2.45;1.65;;;16.30;76.90;;;;;;4995643;28;20042;-79
2024/02/08 10:14:34;;;;;;;1.50;0.82;;;16.20;76.80;;;;;;5022268;28;20096;-79
2024/02/08 10:17:27;;;;;;;3.20;1.35;;;16.20;76.90;;;;;;5004799;28;20048;-80
2024/02/08 10:28:09;;;;;;;;;;;16.30;76.80;;;;;;5005149;28;20092;-79
2024/02/08 10:30:38;;;;;;;2.30;0.98;;;16.20;76.70;;;;;;5004578;28;19917;-79
2024/02/08 10:33:14;;;;;;;1.65;0.90;;;16.30;76.70;;;;;;5015191;28;21026;-79
2024/02/08 10:35:40;;;;;;;6.55;1.38;;;16.20;76.70;;;;;;5002835;28;20034;-79
2024/02/08 10:38:18;;;;;;;1.55;1.08;;;16.30;76.60;;;;;;5022812;28;20099;-79
2024/02/08 10:40:47;;;;;;;2.65;1.00;;;16.20;76.60;;;;;;5004324;28;20084;-79
2024/02/08 10:43:24;;;;;;;2.10;1.17;;;16.30;76.60;;;;;;5004290;28;20052;-79
2024/02/08 10:45:53;;;;;;;1.17;0.90;;;16.20;76.50;;;;;;5017913;28;20053;-79
2024/02/08 10:48:19;;;;;;;1.73;1.02;;;16.30;76.60;;;;;;5017129;28;20057;-79
2024/02/08 10:50:45;;;;;;;1.80;0.90;;;16.30;76.50;;;;;;5005036;28;20044;-79
2024/02/08 10:53:38;;;;;;;2.83;1.20;;;16.20;76.60;;;;;;5004140;28;20113;-79
2024/02/08 10:56:13;;;;;;;3.95;1.58;;;16.20;76.60;;;;;;4981005;28;20448;-79
2024/02/08 10:58:55;;;;;;;2.70;1.10;;;16.20;76.50;;;;;;5021239;28;20045;-79
2024/02/08 11:04:28;;;;;;;1.48;1.00;;;16.30;76.60;;;;;;5003945;28;20427;-79
2024/02/08 11:07:18;;;;;;;1.30;1.05;;;16.30;76.40;;;;;;5016295;28;20042;-79
2024/02/08 11:09:46;;;;;;;2.13;1.10;;;16.30;76.40;;;;;;4989994;28;20348;-79
2024/02/08 11:12:23;;;;;;;1.20;1.00;;;16.30;76.40;;;;;;5003571;28;20046;-79
2024/02/08 11:14:58;;;;;;;3.90;1.35;;;16.30;76.50;;;;;;5016586;28;20523;-79
2024/02/08 11:17:28;;;;;;;1.73;0.82;;;16.20;76.50;;;;;;4995913;28;20056;-79
2024/02/08 11:19:56;;;;;;;1.20;0.90;;;16.20;76.50;;;;;;5011003;28;20092;-79
2024/02/08 11:22:34;;;;;;;2.58;1.13;;;16.20;76.60;;;;;;5004355;28;20404;-79
2024/02/08 11:25:18;;;;;;;1.95;0.93;;;16.30;76.60;;;;;;4997858;28;20050;-79
2024/02/08 11:27:47;;;;;;;4.25;1.50;;;16.20;76.50;;;;;;5015332;28;20096;-79
2024/02/08 11:30:19;;;;;;;1.80;1.05;;;16.20;76.40;;;;;;5000433;28;20141;-79
2024/02/08 11:33:04;;;;;;;3.50;1.20;;;16.20;76.30;;;;;;5003269;28;20427;-79
2024/02/08 11:35:35;;;;;;;1.45;1.08;;;16.20;76.40;;;;;;5017535;28;20101;-79
2024/02/08 11:38:17;;;;;;;3.28;0.98;;;16.20;76.40;;;;;;5001519;28;20065;-79
2024/02/08 11:40:46;;;;;;;3.85;1.25;;;16.20;76.40;;;;;;5004662;28;20031;-79
2024/02/08 11:43:24;;;;;;;3.38;1.20;;;16.20;76.30;;;;;;5016273;28;20056;-79
2024/02/08 11:45:56;;;;;;;1.55;1.08;;;16.20;76.30;;;;;;4981079;28;20052;-79
2024/02/08 11:48:28;;;;;;;1.38;1.00;;;16.20;76.30;;;;;;4652919;28;10000014;-78
2024/02/08 11:50:58;;;;;;;1.20;0.90;;;16.30;76.10;;;;;;4999326;28;20052;-78
2024/02/08 11:53:33;;;;;;;3.55;1.17;;;16.40;76.00;;;;;;4619164;28;10000565;-78
2024/02/08 11:56:02;;;;;;;;;;;16.40;76.10;;;;;;4973144;28;20049;-77
2024/02/08 11:58:49;;;;;;;2.15;1.17;;;16.40;76.00;;;;;;5000522;28;19917;-78
2024/02/08 12:01:17;;;;;;;3.22;1.55;;;16.40;76.10;;;;;;4993710;28;20067;-77
2024/02/08 12:03:43;;;;;;;2.17;0.90;;;16.40;76.10;;;;;;5011347;28;20115;-78
2024/02/08 12:06:17;;;;;;;4.05;0.90;;;16.40;76.10;;;;;;4996589;28;20038;-77
2024/02/08 12:08:58;;;;;;;1.92;0.90;;;16.40;76.10;;;;;;4995928;28;20645;-78
2024/02/08 12:11:30;;;;;;;1.67;0.90;;;16.40;76.00;;;;;;4999088;28;20436;-78
2024/02/08 12:14:13;;;;;;;2.13;1.08;;;16.40;76.00;;;;;;5011360;28;20133;-78
2024/02/08 12:16:50;;;;;;;2.00;1.30;;;16.40;76.00;;;;;;4996681;28;20057;-77
2024/02/08 12:19:21;;;;;;;3.13;1.33;;;16.40;76.10;;;;;;4999400;28;20049;-78
2024/02/08 12:21:57;;;;;;;3.67;1.98;;;16.40;76.00;;;;;;4982761;28;20045;-76
2024/02/08 12:24:26;;;;;;;4.03;1.58;;;16.40;76.10;;;;;;4991928;28;20141;-77
2024/02/08 12:26:54;;;;;;;2.38;2.03;;;16.40;76.10;;;;;;4993168;28;20427;-77
2024/02/08 12:29:19;;;;;;;3.70;2.22;;;16.40;76.20;;;;;;4997280;28;20541;-77
2024/02/08 12:31:47;;;;;;;3.10;2.28;;;16.50;76.30;;;;;;5000139;28;20520;-76
2024/02/08 12:34:14;;;;;;;4.45;2.67;;;16.50;76.10;;;;;;4995939;28;20037;-76
2024/02/08 12:36:44;;;;;;;3.67;2.38;;;16.50;76.00;;;;;;5013132;28;20033;-77
2024/02/08 12:39:19;;;;;;;3.35;2.90;;;16.50;75.90;;;;;;4973519;28;20046;-77
2024/02/08 12:41:49;;;;;;;3.88;2.60;;;16.50;76.00;;;;;;4983072;28;20451;-77
2024/02/08 12:44:15;;;;;;;5.70;2.67;;;16.50;76.40;;;;;;4995986;28;20037;-77
2024/02/08 12:46:46;;;;;;;4.63;1.92;;;16.50;75.90;;;;;;4992368;28;20052;-77
2024/02/08 12:49:15;;;;;;;5.85;2.60;;;16.50;76.40;;;;;;5010897;28;20033;-77
2024/02/08 12:51:40;;;;;;;4.38;2.13;;;16.50;76.50;;;;;;4998656;28;20043;-77
2024/02/08 12:54:07;;;;;;;11.02;2.55;;;16.50;76.50;;;;;;5000174;28;20041;-77
2024/02/08 12:56:36;;;;;;;3.92;2.30;;;16.40;76.20;;;;;;5001635;28;20026;-77
2024/02/08 12:59:02;;;;;;;2.35;2.10;;;16.50;76.30;;;;;;5008189;28;20054;-77
2024/02/08 13:01:44;;;;;;;3.58;2.25;;;16.40;76.50;;;;;;5004962;28;20043;-77
2024/02/08 13:04:17;;;;;;;2.95;2.15;;;16.40;76.40;;;;;;5001291;28;20038;-77
2024/02/08 13:06:43;;;;;;;2.58;2.03;;;16.40;77.30;;;;;;5004155;28;20038;-77
2024/02/08 13:12:17;;;;;;;;;;;16.50;76.50;;;;;;4996168;28;20042;-77
2024/02/08 13:14:49;;;;;;;2.25;2.05;;;16.40;76.40;;;;;;5004600;28;19995;-77
2024/02/08 13:17:23;;;;;;;5.47;2.70;;;16.40;76.50;;;;;;5003905;28;20054;-77
2024/02/08 13:19:49;;;;;;;3.10;2.50;;;16.50;76.30;;;;;;5005133;28;20042;-77
2024/02/08 13:22:20;;;;;;;4.50;2.67;;;16.40;76.40;;;;;;4999906;28;20284;-77
2024/02/08 13:24:48;;;;;;;3.58;2.35;;;16.40;76.30;;;;;;5002963;28;20499;-77
2024/02/08 13:27:18;;;;;;;5.10;2.30;;;16.40;76.30;;;;;;5001934;28;20120;-77
2024/02/08 13:29:44;;;;;;;4.53;2.20;;;16.40;76.30;;;;;;5005076;28;20529;-77
2024/02/08 13:32:10;;;;;;;3.05;2.28;;;16.40;76.20;;;;;;5002469;28;20030;-77
2024/02/08 13:34:38;;;;;;;2.17;1.92;;;16.40;76.20;;;;;;5001159;28;20034;-77
2024/02/08 13:37:15;;;;;;;4.13;2.28;;;16.40;76.20;;;;;;5016256;28;20042;-77
2024/02/08 13:39:43;;;;;;;2.40;2.17;;;16.40;76.20;;;;;;5007024;28;20033;-77
2024/02/08 13:42:12;;;;;;;3.10;2.13;;;16.40;76.10;;;;;;5006885;28;20507;-77
2024/02/08 13:44:38;;;;;;;3.70;2.40;;;16.40;76.00;;;;;;5004310;28;20045;-77
2024/02/08 13:47:04;;;;;;;2.75;2.05;;;16.40;76.00;;;;;;5003690;28;20030;-77
2024/02/08 13:49:34;;;;;;;2.55;1.90;;;16.40;76.10;;;;;;5002268;28;20159;-77
2024/02/08 13:52:01;;;;;;;3.45;2.17;;;16.50;76.10;;;;;;5002773;28;20124;-76
2024/02/08 13:54:27;;;;;;;3.70;2.20;;;16.40;76.70;;;;;;5021210;28;20030;-76
2024/02/08 13:56:55;;;;;;;3.10;2.10;;;16.40;76.00;;;;;;5001353;28;20041;-77
2024/02/08 13:59:21;;;;;;;2.08;1.88;;;16.40;76.00;;;;;;5004231;28;20041;-77
2024/02/08 14:01:46;;;;;;;2.10;1.90;;;16.40;76.00;;;;;;5005900;28;20404;-77
2024/02/08 14:04:20;;;;;;;1.85;1.60;;;16.40;75.80;;;;;;5002942;28;20038;-77
2024/02/08 14:06:55;;;;;;;2.17;1.98;;;16.40;75.90;;;;;;5002277;28;20073;-76
2024/02/08 14:09:25;;;;;;;3.30;2.20;;;16.40;75.80;;;;;;5000970;28;20041;-77
2024/02/08 14:11:58;;;;;;;2.83;1.80;;;16.40;75.80;;;;;;5017384;28;20030;-77
2024/02/08 14:14:40;;;;;;;1.60;1.50;;;16.40;75.80;;;;;;5001891;28;20041;-77
2024/02/08 14:17:10;;;;;;;2.53;1.80;;;16.40;75.80;;;;;;5014004;28;20026;-77
2024/02/08 14:19:36;;;;;;;2.55;1.92;;;16.40;75.80;;;;;;5005625;28;20038;-77
2024/02/08 14:22:08;;;;;;;4.38;1.88;;;16.40;75.70;;;;;;5002575;28;20599;-77
2024/02/08 14:24:42;;;;;;;4.07;1.98;;;16.40;75.60;;;;;;5000566;28;20451;-77
2024/02/08 14:27:10;;;;;;;3.08;2.10;;;16.50;75.80;;;;;;5003861;28;20063;-77
2024/02/08 14:29:36;;;;;;;1.83;1.65;;;16.40;75.60;;;;;;5005669;28;20800;-77
2024/02/08 14:32:04;;;;;;;2.13;1.92;;;16.40;75.70;;;;;;5001116;28;20058;-77
2024/02/08 14:34:36;;;;;;;2.75;1.85;;;16.40;75.60;;;;;;5003520;28;20046;-77
2024/02/08 14:37:03;;;;;;;2.03;1.65;;;16.40;75.60;;;;;;5005026;28;20030;-77
2024/02/08 14:39:32;;;;;;;2.25;1.63;;;16.40;75.60;;;;;;5001271;28;20031;-77
2024/02/08 14:42:11;;;;;;;2.60;1.50;;;16.40;75.60;;;;;;5001990;28;20504;-77
2024/02/08 14:44:41;;;;;;;2.28;1.80;;;16.40;75.70;;;;;;4996452;28;20522;-77
2024/02/08 14:47:07;;;;;;;2.53;1.30;;;16.40;75.70;;;;;;5019366;28;20061;-77
2024/02/08 14:49:54;;;;;;;3.53;2.00;;;16.40;75.60;;;;;;5003863;28;20030;-77
2024/02/08 14:52:28;;;;;;;2.95;1.83;;;16.40;75.70;;;;;;5000926;28;20139;-77
2024/02/08 14:55:09;;;;;;;3.88;1.70;;;16.40;75.60;;;;;;5000280;28;20129;-77
2024/02/08 14:57:45;;;;;;;1.45;1.35;;;16.40;76.40;;;;;;4998756;28;20147;-77
2024/02/08 15:03:20;;;;;;;2.63;1.60;;;16.40;75.70;;;;;;5000842;28;20329;-79
2024/02/08 15:10:59;;;;;;;1.58;1.48;;;16.40;75.70;;;;;;5003493;28;20093;-79
2024/02/08 15:13:25;;;;;;;2.15;1.85;;;16.40;75.80;;;;;;5002159;28;20033;-79
2024/02/08 15:15:54;;;;;;;2.85;1.83;;;16.40;75.90;;;;;;5000536;28;20443;-79
2024/02/08 15:18:38;;;;;;;1.60;1.40;;;16.40;75.90;;;;;;5002410;28;20093;-79
2024/02/08 15:21:06;;;;;;;2.08;1.80;;;16.30;75.90;;;;;;4999137;28;20117;-79
2024/02/08 15:23:47;;;;;;;1.90;1.63;;;16.40;76.00;;;;;;5000221;28;20065;-79
2024/02/08 15:26:13;;;;;;;1.52;1.40;;;16.40;76.00;;;;;;5000745;28;20531;-79
2024/02/08 15:28:42;;;;;;;1.88;1.67;;;16.30;76.00;;;;;;5005323;28;20038;-79
2024/02/08 15:34:07;;;;;;;;;;;16.30;76.00;;;;;;4998298;28;21063;-79
2024/02/08 15:36:46;;;;;;;2.22;1.52;;;16.30;75.90;;;;;;5000712;28;19964;-79
2024/02/08 15:39:26;;;;;;;1.70;1.50;;;16.30;75.90;;;;;;5001889;28;20052;-79